Time;durP1;ratioP1;P1;durP2;ratioP2;P2;SDS_P1;SDS_P2;PMS_P1;PMS_P2;Temp;Humidity;BMP_temperature;BMP_pressure;BME280_temperature;BME280_humidity;BME280_pressure;Samples;Min_cycle;Max_cycle;Signal;HPM_P1;HPM_P2
2022/02/19 00:00:31;;;;;;;6.15;2.42;;;;;;;12.72;43.26;99054.13;4478253;31;33766;-83
2022/02/19 00:02:59;;;;;;;4.05;2.33;;;;;;;12.54;43.64;99064.09;4493318;31;33213;-83
2022/02/19 00:05:26;;;;;;;4.78;2.03;;;;;;;12.33;44.14;99065.44;4494951;31;33677;-83
2022/02/19 00:07:55;;;;;;;6.93;2.85;;;;;;;12.24;44.47;99069.50;4489567;31;33819;-83
2022/02/19 00:10:23;;;;;;;6.35;2.67;;;;;;;12.18;44.56;99061.97;4492397;31;33576;-83
2022/02/19 00:12:51;;;;;;;6.03;3.45;;;;;;;11.93;45.29;99066.13;4485457;31;33439;-84
2022/02/19 00:15:18;;;;;;;8.82;4.87;;;;;;;11.63;46.33;99059.97;4492467;31;34568;-84
2022/02/19 00:17:46;;;;;;;8.63;3.10;;;;;;;12.00;45.59;99064.78;4500492;31;34102;-84
2022/02/19 00:20:14;;;;;;;5.95;3.20;;;;;;;12.22;44.70;99053.72;4480892;31;34353;-84
2022/02/19 00:22:42;;;;;;;6.10;2.87;;;;;;;12.05;44.96;99056.56;4478762;31;32448;-84
2022/02/19 00:25:10;;;;;;;5.75;2.87;;;;;;;11.84;45.37;99063.19;4477852;31;34588;-84
2022/02/19 00:27:38;;;;;;;7.70;3.08;;;;;;;11.35;46.74;99066.06;4478328;31;32341;-84
2022/02/19 00:30:06;;;;;;;7.10;3.85;;;;;;;11.10;47.70;99062.19;4491824;31;34696;-84
2022/02/19 00:32:34;;;;;;;9.52;3.70;;;;;;;10.91;48.14;99067.66;4491451;31;33927;-84
2022/02/19 00:35:03;;;;;;;8.18;2.55;;;;;;;10.94;48.02;99066.66;4492767;31;33482;-84
2022/02/19 00:37:30;;;;;;;6.80;3.58;;;;;;;10.96;48.02;99075.34;4479206;31;33525;-84
2022/02/19 00:39:59;;;;;;;7.37;3.37;;;;;;;11.02;48.09;99065.28;4499773;31;33963;-84
2022/02/19 00:42:28;;;;;;;4.80;2.17;;;;;;;10.82;48.67;99078.75;4496540;31;34764;-83
2022/02/19 00:44:56;;;;;;;6.50;2.60;;;;;;;10.80;48.89;99079.78;4479027;31;32697;-84
2022/02/19 00:47:24;;;;;;;6.12;3.15;;;;;;;10.79;49.25;99086.87;4493164;31;34064;-84
2022/02/19 00:49:51;;;;;;;5.35;2.53;;;;;;;10.25;50.84;99091.56;4479141;31;33301;-84
2022/02/19 00:52:19;;;;;;;5.65;2.90;;;;;;;10.54;50.08;99084.75;4478549;31;34340;-84
2022/02/19 00:54:47;;;;;;;8.52;2.97;;;;;;;10.37;50.44;99092.72;4495188;31;34159;-84
2022/02/19 00:57:15;;;;;;;5.68;2.50;;;;;;;10.63;49.70;99088.63;4490181;31;33370;-84
2022/02/19 00:59:43;;;;;;;7.22;3.55;;;;;;;10.33;50.75;99081.47;4493385;31;34657;-84
2022/02/19 01:02:11;;;;;;;9.55;4.37;;;;;;;10.14;51.34;99070.16;4477885;31;32373;-84
2022/02/19 01:04:39;;;;;;;11.10;4.78;;;;;;;9.99;51.78;99075.31;4493218;31;33883;-83
2022/02/19 01:07:06;;;;;;;11.50;5.43;;;;;;;9.77;52.42;99068.63;4494761;31;32973;-83
2022/02/19 01:09:34;;;;;;;11.77;5.57;;;;;;;10.10;51.49;99068.63;4488986;31;33476;-84
2022/02/19 01:12:02;;;;;;;12.00;5.37;;;;;;;10.25;51.11;99073.97;4480394;31;33192;-84
2022/02/19 01:14:29;;;;;;;10.35;5.00;;;;;;;10.25;51.28;99083.66;4500054;31;33987;-83
2022/02/19 01:16:57;;;;;;;10.90;5.93;;;;;;;10.26;51.28;99074.84;4478346;31;32659;-83
2022/02/19 01:19:26;;;;;;;8.13;5.00;;;;;;;10.36;50.81;99078.66;4494502;31;33912;-84
2022/02/19 01:21:53;;;;;;;7.65;4.93;;;;;;;10.37;50.66;99067.19;4472424;31;34103;-83
2022/02/19 01:24:22;;;;;;;8.20;3.40;;;;;;;10.48;50.89;99063.94;4463277;31;33098;-83
2022/02/19 01:26:53;;;;;;;10.80;5.32;;;;;;;10.04;52.06;99063.69;4491671;31;33153;-83
2022/02/19 01:29:21;;;;;;;8.98;4.43;;;;;;;9.91;52.33;99069.59;4482415;31;33693;-83
2022/02/19 01:31:49;;;;;;;8.15;3.92;;;;;;;10.11;52.03;99065.94;4476603;31;33799;-84
2022/02/19 01:34:17;;;;;;;7.28;3.53;;;;;;;9.94;52.41;99066.81;4476885;31;33084;-84
2022/02/19 01:36:45;;;;;;;7.82;4.25;;;;;;;9.93;52.38;99051.91;4491579;31;33258;-84
2022/02/19 01:39:14;;;;;;;7.93;4.62;;;;;;;9.81;52.61;99052.56;4491824;31;33474;-84
2022/02/19 01:41:42;;;;;;;7.12;3.08;;;;;;;9.71;53.03;99057.47;4468060;31;33387;-84
2022/02/19 01:44:12;;;;;;;6.80;3.47;;;;;;;9.66;53.43;99059.47;4479943;31;33313;-84
2022/02/19 01:46:40;;;;;;;5.55;3.78;;;;;;;9.63;53.60;99064.91;4478617;31;32644;-83
2022/02/19 01:49:08;;;;;;;10.02;4.70;;;;;;;9.73;53.36;99062.63;4476903;31;34034;-83
2022/02/19 01:51:37;;;;;;;5.93;3.85;;;;;;;9.63;53.57;99064.06;4478249;31;33524;-83
2022/02/19 01:54:07;;;;;;;7.35;3.53;;;;;;;9.74;53.15;99070.50;4478234;31;35008;-83
2022/02/19 01:56:37;;;;;;;8.00;3.67;;;;;;;9.65;53.43;99075.38;4477559;31;33328;-83
2022/02/19 01:59:07;;;;;;;6.45;4.25;;;;;;;9.45;53.91;99086.94;4478029;31;35260;-83
2022/02/19 02:01:41;;;;;;;6.12;3.58;;;;;;;9.46;53.70;99093.91;4484212;31;33380;-83
2022/02/19 02:04:10;;;;;;;9.18;3.97;;;;;;;9.57;53.40;99083.66;4492480;31;33273;-83
2022/02/19 02:06:42;;;;;;;6.90;3.92;;;;;;;9.38;54.00;99081.13;4488838;31;33341;-84
2022/02/19 02:09:10;;;;;;;7.25;4.47;;;;;;;9.32;53.99;99078.78;4482111;31;35388;-84
2022/02/19 02:11:38;;;;;;;10.13;4.05;;;;;;;9.30;53.99;99072.72;4477481;31;33028;-84
2022/02/19 02:14:07;;;;;;;9.43;3.80;;;;;;;9.32;53.79;99075.31;4478343;31;33619;-84
2022/02/19 02:16:38;;;;;;;10.63;4.10;;;;;;;9.34;53.90;99084.81;4466666;31;32707;-84
2022/02/19 02:19:06;;;;;;;6.97;3.97;;;;;;;9.12;54.76;99084.22;4474947;31;33912;-84
2022/02/19 02:21:35;;;;;;;9.05;3.35;;;;;;;9.27;54.58;99093.13;4479460;31;34451;-83
2022/02/19 02:24:03;;;;;;;6.65;3.40;;;;;;;9.12;54.68;99094.75;4492114;31;32633;-83
2022/02/19 02:26:31;;;;;;;8.40;3.35;;;;;;;9.10;55.07;99088.69;4483692;31;31696;-84
2022/02/19 02:28:59;;;;;;;4.62;2.95;;;;;;;8.86;55.56;99096.00;4479214;31;32770;-84
2022/02/19 02:31:28;;;;;;;9.15;3.30;;;;;;;9.00;55.35;99100.59;4498499;31;33738;-84
2022/02/19 02:33:59;;;;;;;7.40;3.42;;;;;;;8.94;55.36;99101.75;4476384;32;34520;-82
2022/02/19 02:36:27;;;;;;;7.87;3.87;;;;;;;8.20;58.07;99105.12;4490809;31;34039;-82
2022/02/19 02:38:57;;;;;;;7.47;3.87;;;;;;;8.49;57.27;99097.72;4491361;31;33832;-82
2022/02/19 02:41:25;;;;;;;6.00;3.65;;;;;;;8.80;56.28;99096.28;4471087;31;33709;-82
2022/02/19 02:43:54;;;;;;;7.30;3.53;;;;;;;8.67;56.44;99094.22;4491450;31;32318;-83
2022/02/19 02:46:22;;;;;;;5.32;3.92;;;;;;;8.66;56.61;99099.56;4479815;31;32358;-82
2022/02/19 02:48:49;;;;;;;6.50;3.17;;;;;;;8.54;57.15;99118.56;4481572;31;33823;-82
2022/02/19 02:51:17;;;;;;;6.50;4.25;;;;;;;8.57;57.13;99121.91;4467952;31;33079;-83
2022/02/19 02:53:46;;;;;;;11.95;4.20;;;;;;;8.36;58.16;99129.00;4493613;31;33219;-82
2022/02/19 02:56:14;;;;;;;8.68;4.00;;;;;;;8.73;57.20;99148.34;4478251;31;33158;-82
2022/02/19 02:58:42;;;;;;;6.87;3.95;;;;;;;8.90;56.87;99153.69;4479675;31;34220;-82
2022/02/19 03:01:09;;;;;;;7.12;3.70;;;;;;;8.71;57.74;99158.97;4492592;31;34721;-85
2022/02/19 03:03:38;;;;;;;8.85;3.58;;;;;;;8.58;58.25;99172.75;4473296;31;34766;-84
2022/02/19 03:06:06;;;;;;;6.05;3.55;;;;;;;9.02;57.51;99164.56;4482768;31;33000;-83
2022/02/19 03:08:34;;;;;;;5.12;3.10;;;;;;;8.68;58.64;99187.19;4481128;31;33102;-84
2022/02/19 03:11:02;;;;;;;4.72;3.17;;;;;;;8.70;58.61;99201.16;4482467;31;32441;-84
2022/02/19 03:13:30;;;;;;;7.85;3.00;;;;;;;9.11;57.24;99222.06;4480962;31;31868;-83
2022/02/19 03:15:58;;;;;;;7.40;3.42;;;;;;;8.62;58.99;99221.69;4494421;31;31675;-84
2022/02/19 03:18:26;;;;;;;7.10;3.75;;;;;;;8.70;59.02;99214.31;4467315;31;34040;-84
2022/02/19 03:20:55;;;;;;;5.25;3.00;;;;;;;8.85;58.82;99218.88;4480528;31;33680;-85
2022/02/19 03:23:22;;;;;;;4.93;3.33;;;;;;;8.92;59.25;99224.69;4493149;31;34352;-83
2022/02/19 03:25:50;;;;;;;6.75;3.40;;;;;;;9.01;58.85;99223.41;4467104;31;32106;-84
2022/02/19 03:28:19;;;;;;;5.70;2.95;;;;;;;9.24;58.20;99221.41;4480199;31;33070;-83
2022/02/19 03:30:48;;;;;;;5.35;3.05;;;;;;;9.40;57.82;99232.09;4480070;31;34492;-83
2022/02/19 03:33:18;;;;;;;8.75;3.55;;;;;;;9.29;58.21;99229.09;4486961;31;32144;-83
2022/02/19 03:35:46;;;;;;;6.03;3.60;;;;;;;9.04;59.08;99231.19;4492193;31;32729;-83
2022/02/19 03:38:14;;;;;;;5.87;3.15;;;;;;;9.27;58.91;99241.50;4480960;31;32553;-83
2022/02/19 03:40:42;;;;;;;7.97;3.53;;;;;;;9.26;58.97;99244.19;4464917;31;34370;-83
2022/02/19 03:43:10;;;;;;;6.18;2.75;;;;;;;9.39;58.63;99243.53;4479753;31;33863;-83
2022/02/19 03:45:41;;;;;;;3.83;2.90;;;;;;;9.56;58.16;99249.81;4495392;31;34033;-82
2022/02/19 03:48:10;;;;;;;5.20;3.37;;;;;;;9.60;57.98;99243.47;4487344;31;33562;-83
2022/02/19 03:50:38;;;;;;;8.10;3.72;;;;;;;9.69;57.99;99241.22;4473573;31;33320;-83
2022/02/19 03:53:05;;;;;;;10.88;3.05;;;;;;;9.56;58.63;99249.81;4480648;31;33161;-83
2022/02/19 03:55:33;;;;;;;5.50;3.20;;;;;;;9.39;59.35;99258.50;4480556;31;33657;-83
2022/02/19 03:58:02;;;;;;;6.30;3.42;;;;;;;9.45;59.59;99259.09;4492015;31;33827;-83
2022/02/19 04:00:30;;;;;;;6.28;3.08;;;;;;;9.73;58.85;99265.62;4492085;31;33645;-83
2022/02/19 04:03:01;;;;;;;4.93;3.00;;;;;;;9.78;58.68;99266.28;4475825;31;33734;-84
2022/02/19 04:05:29;;;;;;;5.47;2.78;;;;;;;10.01;58.12;99265.12;4465842;31;31568;-84
2022/02/19 04:07:57;;;;;;;4.40;2.45;;;;;;;9.84;58.88;99265.97;4494186;31;33136;-83
2022/02/19 04:10:25;;;;;;;5.37;2.78;;;;;;;9.90;58.71;99272.72;4482333;31;32701;-84
2022/02/19 04:12:53;;;;;;;7.00;2.70;;;;;;;9.88;59.23;99267.53;4491796;31;34038;-83
2022/02/19 04:15:23;;;;;;;3.97;2.40;;;;;;;10.00;59.23;99269.56;4466919;31;31849;-84
2022/02/19 04:17:51;;;;;;;4.47;2.42;;;;;;;9.91;59.42;99275.28;4491607;31;33469;-84
2022/02/19 04:20:19;;;;;;;3.65;2.70;;;;;;;10.13;58.80;99274.22;4462499;31;33323;-84
2022/02/19 04:22:46;;;;;;;4.50;2.33;;;;;;;10.60;57.81;99270.97;4492998;31;34303;-84
2022/02/19 04:25:14;;;;;;;5.05;2.90;;;;;;;10.79;57.29;99268.22;4464734;31;33247;-83
2022/02/19 04:27:42;;;;;;;4.57;2.50;;;;;;;10.28;58.50;99267.34;4486304;31;33643;-83
2022/02/19 04:30:10;;;;;;;6.60;3.08;;;;;;;10.68;57.75;99272.28;4458713;31;33881;-83
2022/02/19 04:32:39;;;;;;;5.95;3.10;;;;;;;11.01;56.80;99269.66;4489696;31;33833;-83
2022/02/19 04:35:07;;;;;;;3.80;2.78;;;;;;;11.07;56.49;99264.97;4493722;31;33476;-82
2022/02/19 04:37:35;;;;;;;4.30;2.50;;;;;;;10.97;56.88;99261.97;4467623;31;33592;-84
2022/02/19 04:40:05;;;;;;;5.12;2.97;;;;;;;10.88;57.17;99263.31;4494104;31;33537;-84
2022/02/19 04:42:32;;;;;;;4.40;3.03;;;;;;;11.14;56.46;99253.97;4490470;31;34532;-83
2022/02/19 04:45:00;;;;;;;4.65;2.53;;;;;;;11.41;55.45;99256.03;4495139;31;33284;-83
2022/02/19 04:47:29;;;;;;;5.65;3.12;;;;;;;10.84;57.06;99267.03;4483782;31;33349;-83
2022/02/19 04:49:57;;;;;;;4.87;3.22;;;;;;;11.08;56.59;99271.94;4476834;31;34533;-83
2022/02/19 04:52:24;;;;;;;4.50;2.70;;;;;;;11.31;55.67;99271.53;4480577;31;33498;-83
2022/02/19 04:54:53;;;;;;;5.40;2.67;;;;;;;11.36;55.29;99274.78;4477412;31;32138;-83
2022/02/19 04:57:21;;;;;;;6.75;3.67;;;;;;;10.90;56.61;99281.72;4488409;31;33402;-83
2022/02/19 04:59:50;;;;;;;4.90;2.95;;;;;;;10.79;57.03;99281.44;4473269;31;36774;-83
2022/02/19 05:02:18;;;;;;;6.70;3.55;;;;;;;11.21;55.78;99291.50;4490308;31;33142;-83
2022/02/19 05:04:47;;;;;;;4.85;2.67;;;;;;;11.16;55.93;99299.66;4489470;31;34414;-83
2022/02/19 05:07:15;;;;;;;7.65;3.58;;;;;;;10.81;56.75;99296.25;4477998;31;33281;-83
2022/02/19 05:09:43;;;;;;;8.05;3.12;;;;;;;11.11;56.02;99307.00;4476084;31;35370;-83
2022/02/19 05:12:11;;;;;;;6.22;3.17;;;;;;;10.70;57.30;99310.03;4489093;31;34160;-83
2022/02/19 05:14:40;;;;;;;4.35;2.62;;;;;;;10.50;57.89;99316.34;4489781;31;32794;-84
2022/02/19 05:17:10;;;;;;;3.80;1.52;;;;;;;10.59;56.74;99320.28;4491663;31;31932;-84
2022/02/19 05:19:38;;;;;;;1.33;0.85;;;;;;;10.46;55.78;99330.63;4468141;31;33343;-84
2022/02/19 05:22:06;;;;;;;1.40;0.68;;;;;;;10.68;53.68;99333.03;4478539;31;31731;-84
2022/02/19 05:24:35;;;;;;;1.52;0.88;;;;;;;11.11;51.37;99330.78;4476133;31;31096;-83
2022/02/19 05:27:04;;;;;;;2.03;0.50;;;;;;;11.15;51.30;99334.09;4476922;31;32427;-83
2022/02/19 05:29:31;;;;;;;1.08;0.45;;;;;;;11.19;47.66;99339.13;4477983;31;32874;-83
2022/02/19 05:31:59;;;;;;;1.17;0.30;;;;;;;11.39;45.04;99348.62;4475399;31;33651;-84
2022/02/19 05:34:27;;;;;;;1.42;0.17;;;;;;;11.30;44.25;99351.78;4488475;31;32123;-84
2022/02/19 05:36:55;;;;;;;1.02;0.20;;;;;;;11.49;43.26;99357.78;4477609;31;33750;-84
2022/02/19 05:39:25;;;;;;;0.20;0.10;;;;;;;11.34;42.01;99366.50;4488880;31;34419;-83
2022/02/19 05:41:53;;;;;;;1.45;0.03;;;;;;;11.71;40.83;99364.53;4478372;31;32645;-83
2022/02/19 05:44:20;;;;;;;0.47;0.20;;;;;;;11.63;42.04;99377.31;4463860;31;32805;-82
2022/02/19 05:46:50;;;;;;;0.43;0.28;;;;;;;11.51;42.17;99379.69;4488320;31;33511;-83
2022/02/19 05:49:19;;;;;;;1.85;0.10;;;;;;;11.71;41.60;99393.63;4475699;31;34368;-83
2022/02/19 05:51:47;;;;;;;1.10;0.35;;;;;;;11.84;41.69;99402.62;4490881;31;33761;-83
2022/02/19 05:54:15;;;;;;;1.30;0.20;;;;;;;11.82;41.81;99403.59;4490472;31;33052;-82
2022/02/19 05:56:45;;;;;;;1.50;0.20;;;;;;;11.94;42.20;99417.03;4477298;31;34634;-83
2022/02/19 05:59:12;;;;;;;0.35;0.15;;;;;;;11.79;42.20;99417.88;4479065;31;33146;-82
2022/02/19 06:01:41;;;;;;;0.13;0.10;;;;;;;11.85;42.68;99427.28;4492234;31;33906;-82
2022/02/19 06:04:08;;;;;;;0.70;0.10;;;;;;;11.86;42.31;99432.47;4487247;31;31579;-83
2022/02/19 06:06:37;;;;;;;0.30;0.20;;;;;;;11.61;42.89;99427.63;4489125;31;34106;-82
2022/02/19 06:09:05;;;;;;;0.55;0.10;;;;;;;11.82;42.51;99448.56;4489000;31;32977;-83
2022/02/19 06:11:34;;;;;;;2.42;0.35;;;;;;;11.92;41.69;99453.31;4486025;31;33622;-83
2022/02/19 06:14:04;;;;;;;0.37;0.10;;;;;;;11.88;40.75;99470.31;4478313;31;31512;-82
2022/02/19 06:16:33;;;;;;;0.90;0.10;;;;;;;11.69;41.16;99467.75;4468650;31;33126;-83
2022/02/19 06:19:01;;;;;;;0.25;0.20;;;;;;;11.67;41.32;99476.69;4477740;31;33306;-84
2022/02/19 06:21:28;;;;;;;1.23;0.35;;;;;;;11.62;40.68;99478.72;4488751;31;32898;-84
2022/02/19 06:24:04;;;;;;;2.03;0.30;;;;;;;11.77;40.20;99473.50;4490317;31;35118;-84
2022/02/19 06:26:32;;;;;;;0.10;0.10;;;;;;;11.60;41.38;99478.81;4478635;31;33126;-83
2022/02/19 06:29:01;;;;;;;1.35;0.30;;;;;;;11.79;39.97;99479.56;4476160;31;34838;-83
2022/02/19 06:31:28;;;;;;;0.50;0.10;;;;;;;11.68;40.51;99481.03;4489817;31;34238;-83
2022/02/19 06:33:56;;;;;;;0.22;0.10;;;;;;;11.44;40.96;99484.06;4489627;31;34754;-83
2022/02/19 06:36:24;;;;;;;1.02;0.10;;;;;;;11.78;40.17;99487.56;4478967;31;32751;-84
2022/02/19 06:38:52;;;;;;;2.37;0.30;;;;;;;11.68;40.70;99497.78;4478037;31;33545;-84
2022/02/19 06:41:24;;;;;;;0.10;0.10;;;;;;;11.32;41.23;99500.56;4488319;31;32162;-84
2022/02/19 06:43:52;;;;;;;0.82;0.20;;;;;;;11.34;40.81;99501.31;4491531;31;33331;-84
2022/02/19 06:46:20;;;;;;;0.50;0.30;;;;;;;11.67;40.00;99505.78;4493590;31;33852;-84
2022/02/19 06:48:49;;;;;;;2.35;0.50;;;;;;;11.57;40.65;99499.28;4491109;31;33440;-83
2022/02/19 06:51:18;;;;;;;1.30;0.32;;;;;;;11.72;39.88;99503.75;4479452;31;33505;-84
2022/02/19 06:53:45;;;;;;;0.60;0.20;;;;;;;11.56;40.68;99516.94;4477579;31;32171;-84
2022/02/19 06:56:13;;;;;;;2.15;0.40;;;;;;;11.68;40.26;99515.44;4488218;31;32972;-84
2022/02/19 06:58:41;;;;;;;1.60;0.28;;;;;;;11.10;41.59;99515.78;4489262;31;33571;-84
2022/02/19 07:01:10;;;;;;;2.87;0.55;;;;;;;11.28;41.24;99517.50;4477548;31;33721;-84
2022/02/19 07:03:38;;;;;;;0.32;0.25;;;;;;;11.37;41.78;99527.59;4476677;31;32979;-84
2022/02/19 07:06:07;;;;;;;2.08;0.20;;;;;;;11.23;41.44;99527.47;4460625;31;34244;-85
2022/02/19 07:08:35;;;;;;;3.08;0.17;;;;;;;11.27;41.65;99519.28;4476718;31;32927;-85
2022/02/19 07:11:03;;;;;;;0.05;0.00;;;;;;;11.35;41.26;99521.56;4489319;31;32923;-85
2022/02/19 07:13:31;;;;;;;3.10;0.88;;;;;;;11.17;41.85;99528.63;4490350;31;33687;-85
2022/02/19 07:16:02;;;;;;;0.47;0.15;;;;;;;11.49;41.21;99534.91;4462103;31;32461;-85
2022/02/19 07:18:30;;;;;;;0.57;0.57;;;;;;;11.34;42.19;99530.41;4463611;31;34363;-85
2022/02/19 07:20:58;;;;;;;4.12;0.13;;;;;;;11.24;42.38;99529.16;4473815;31;33562;-85
2022/02/19 07:23:26;;;;;;;0.15;0.15;;;;;;;11.39;41.89;99535.44;4485537;31;33117;-84
2022/02/19 07:25:54;;;;;;;1.62;0.20;;;;;;;11.37;41.62;99546.13;4472868;31;33265;-84
2022/02/19 07:28:22;;;;;;;3.25;0.60;;;;;;;11.76;40.59;99559.06;4466075;31;33268;-85
2022/02/19 07:30:50;;;;;;;0.47;0.10;;;;;;;11.41;40.85;99558.25;4490238;31;33573;-85
2022/02/19 07:33:18;;;;;;;2.42;0.22;;;;;;;11.48;41.08;99580.78;4470979;31;32326;-86
2022/02/19 07:35:46;;;;;;;2.05;0.43;;;;;;;11.39;41.20;99586.53;4474767;31;33601;-85
2022/02/19 07:38:15;;;;;;;3.97;0.55;;;;;;;11.32;40.42;99598.38;4468785;31;32978;-85
2022/02/19 07:40:43;;;;;;;3.97;0.45;;;;;;;11.31;41.17;99607.22;4484500;31;34442;-88
2022/02/19 07:43:15;;;;;;;0.65;0.20;;;;;;;11.42;41.23;99606.69;4478091;31;33913;-88
2022/02/19 07:46:02;;;;;;;1.87;0.20;;;;;;;11.37;40.72;99620.13;4478395;31;32828;-88
2022/02/19 07:48:34;;;;;;;1.33;0.30;;;;;;;11.36;40.63;99623.72;4487579;31;35414;-88
2022/02/19 07:59:32;;;;;;;1.85;0.57;;;;;;;11.50;40.03;99647.69;4485680;31;33628;-87
2022/02/19 08:02:00;;;;;;;1.95;0.20;;;;;;;11.68;39.91;99655.59;4479605;31;33873;-88
2022/02/19 08:04:28;;;;;;;1.67;0.20;;;;;;;11.29;40.96;99670.72;4467352;31;32740;-88
2022/02/19 08:06:55;;;;;;;4.47;0.20;;;;;;;11.49;40.80;99661.84;4488308;31;33458;-88
2022/02/19 08:09:23;;;;;;;0.40;0.17;;;;;;;11.43;40.14;99662.12;4465124;31;32977;-88
2022/02/19 08:11:51;;;;;;;3.25;0.57;;;;;;;11.36;40.65;99668.66;4464731;31;33423;-88
2022/02/19 08:14:19;;;;;;;0.68;0.30;;;;;;;11.64;40.13;99664.66;4467768;31;32203;-88
2022/02/19 08:16:46;;;;;;;0.30;0.28;;;;;;;11.33;41.09;99666.16;4472839;31;32857;-88
2022/02/19 08:19:15;;;;;;;1.55;0.50;;;;;;;11.54;40.27;99672.19;4490043;31;36711;-88
2022/02/19 08:21:43;;;;;;;0.40;0.10;;;;;;;11.53;40.56;99676.59;4475815;31;33337;-88
2022/02/19 08:24:11;;;;;;;0.80;0.25;;;;;;;11.88;39.52;99679.31;4479524;31;32286;-88
2022/02/19 08:26:39;;;;;;;1.60;0.20;;;;;;;11.74;40.45;99681.75;4487155;31;32739;-88
2022/02/19 08:29:08;;;;;;;1.77;0.20;;;;;;;11.63;40.19;99676.13;4474808;31;34254;-89
2022/02/19 08:31:36;;;;;;;1.55;0.40;;;;;;;11.97;39.52;99670.91;4473300;31;32486;-88
2022/02/19 08:34:04;;;;;;;2.72;0.20;;;;;;;11.92;39.52;99690.59;4476429;31;33850;-87
2022/02/19 08:36:32;;;;;;;4.25;0.73;;;;;;;11.73;40.62;99686.19;4476361;31;33513;-87
2022/02/19 08:39:02;;;;;;;1.85;0.30;;;;;;;11.80;40.04;99697.31;4462874;31;33346;-88
2022/02/19 08:41:30;;;;;;;1.95;0.30;;;;;;;12.09;39.32;99681.78;4478139;31;33011;-88
2022/02/19 08:43:58;;;;;;;4.22;0.40;;;;;;;12.10;38.86;99688.78;4474361;31;32551;-88
2022/02/19 08:46:26;;;;;;;0.10;0.03;;;;;;;12.00;38.17;99697.19;4488302;31;33527;-88
2022/02/19 08:48:54;;;;;;;1.27;0.37;;;;;;;12.01;39.12;99712.16;4468586;31;33039;-87
2022/02/19 08:51:22;;;;;;;3.08;0.43;;;;;;;11.94;38.52;99704.59;4487573;31;34579;-87
2022/02/19 08:53:50;;;;;;;1.45;0.30;;;;;;;12.04;37.85;99706.69;4477748;31;33191;-88
2022/02/19 08:56:20;;;;;;;1.45;0.30;;;;;;;11.70;39.18;99702.22;4476371;31;32413;-87
2022/02/19 08:58:47;;;;;;;5.47;1.05;;;;;;;11.88;38.31;99716.34;4467333;31;33174;-87
2022/02/19 09:01:16;;;;;;;0.32;0.20;;;;;;;12.15;37.17;99697.34;4484777;31;33717;-88
2022/02/19 09:03:44;;;;;;;1.25;0.20;;;;;;;12.22;36.94;99694.28;4490875;31;33238;-86
2022/02/19 09:06:12;;;;;;;1.75;0.35;;;;;;;11.96;37.91;99697.41;4462934;31;32887;-88
2022/02/19 09:08:40;;;;;;;0.70;0.20;;;;;;;12.02;37.56;99708.56;4489665;31;34413;-87
2022/02/19 09:11:08;;;;;;;0.85;0.20;;;;;;;12.10;36.86;99705.50;4487292;31;33690;-88
2022/02/19 09:13:36;;;;;;;0.80;0.30;;;;;;;11.96;36.72;99711.53;4486869;31;32975;-89
2022/02/19 09:16:04;;;;;;;0.45;0.20;;;;;;;12.01;36.78;99728.03;4465137;31;33130;-89
2022/02/19 09:18:32;;;;;;;1.33;0.30;;;;;;;11.84;36.98;99711.28;4465635;31;32926;-89
2022/02/19 09:21:00;;;;;;;4.80;0.40;;;;;;;11.93;36.83;99732.84;4464900;31;33159;-89
2022/02/19 09:23:28;;;;;;;2.45;0.77;;;;;;;11.92;36.61;99736.44;4464052;31;32375;-88
2022/02/19 09:25:56;;;;;;;1.45;0.30;;;;;;;11.94;36.69;99737.19;4449203;31;35641;-89
2022/02/19 09:28:24;;;;;;;0.65;0.20;;;;;;;11.68;37.82;99751.69;4472824;31;34210;-89
2022/02/19 09:30:52;;;;;;;5.35;0.75;;;;;;;11.68;37.69;99756.09;4489877;31;33784;-89
2022/02/19 09:33:20;;;;;;;2.37;0.50;;;;;;;11.68;37.46;99766.69;4465437;31;32553;-85
2022/02/19 09:35:47;;;;;;;0.80;0.28;;;;;;;11.54;38.29;99770.88;4487393;31;33887;-85
2022/02/19 09:38:17;;;;;;;6.45;0.30;;;;;;;11.54;40.22;99770.03;4473958;31;34478;-85
2022/02/19 09:40:44;;;;;;;1.35;0.15;;;;;;;11.67;39.88;99760.53;4487834;31;33662;-85
2022/02/19 09:43:12;;;;;;;1.35;0.30;;;;;;;11.87;37.69;99764.91;4486458;31;33175;-84
2022/02/19 09:45:40;;;;;;;1.62;0.50;;;;;;;11.76;37.30;99768.03;4487728;31;33813;-84
2022/02/19 09:48:10;;;;;;;0.75;0.20;;;;;;;11.75;36.96;99778.69;4470774;31;33194;-85
2022/02/19 09:50:38;;;;;;;1.85;0.25;;;;;;;11.45;38.48;99789.81;4474268;31;33920;-85
2022/02/19 09:53:05;;;;;;;1.77;0.47;;;;;;;11.79;36.89;99786.41;4478272;31;32812;-85
2022/02/19 09:55:33;;;;;;;0.90;0.30;;;;;;;11.75;36.95;99789.28;4478305;31;33111;-84
2022/02/19 09:58:01;;;;;;;2.17;0.62;;;;;;;11.94;36.15;99802.50;4482098;31;33061;-84
2022/02/19 10:00:35;;;;;;;1.27;0.43;;;;;;;11.76;36.87;99799.78;4488000;31;31877;-85
2022/02/19 10:03:03;;;;;;;2.15;0.40;;;;;;;11.76;36.29;99817.44;4491761;31;33381;-84
2022/02/19 10:05:34;;;;;;;0.95;0.40;;;;;;;12.02;35.84;99819.72;4487078;31;34886;-84
2022/02/19 10:08:08;;;;;;;0.82;0.40;;;;;;;11.66;36.20;99814.38;4482120;31;33554;-84
2022/02/19 10:10:39;;;;;;;2.45;0.40;;;;;;;11.54;36.08;99818.47;4467494;31;33357;-84
2022/02/19 10:13:09;;;;;;;3.42;0.30;;;;;;;11.80;36.54;99825.16;4466730;31;32018;-84
2022/02/19 10:15:51;;;;;;;1.35;0.47;;;;;;;12.01;35.41;99823.31;4477699;31;34311;-84
2022/02/19 10:18:29;;;;;;;1.20;0.30;;;;;;;11.95;35.25;99833.31;4479319;31;32760;-84
2022/02/19 10:21:18;;;;;;;3.70;0.40;;;;;;;12.11;35.81;99838.72;4493937;31;33486;-84
2022/02/19 10:23:48;;;;;;;1.92;0.50;;;;;;;11.87;35.29;99844.28;4470703;31;32123;-84
2022/02/19 10:26:19;;;;;;;2.90;0.98;;;;;;;12.09;35.33;99846.72;4481848;31;34401;-84
2022/02/19 10:29:04;;;;;;;1.30;0.40;;;;;;;12.29;34.40;99845.72;4477520;31;34634;-84
2022/02/19 10:31:34;;;;;;;2.95;0.60;;;;;;;12.41;33.96;99838.97;4477920;31;34468;-84
2022/02/19 10:34:12;;;;;;;0.32;0.30;;;;;;;12.22;34.63;99853.12;4478708;31;32062;-84
2022/02/19 10:36:50;;;;;;;3.50;0.95;;;;;;;12.21;34.54;99850.56;4469520;31;32091;-84
2022/02/19 10:39:28;;;;;;;1.25;0.60;;;;;;;11.82;35.62;99856.87;4494249;31;34257;-84
2022/02/19 10:41:57;;;;;;;0.70;0.20;;;;;;;12.34;34.37;99845.50;4494715;31;33876;-84
2022/02/19 10:44:31;;;;;;;3.08;1.30;;;;;;;12.51;34.01;99853.47;4478035;31;34033;-84
2022/02/19 10:47:22;;;;;;;0.77;0.50;;;;;;;12.23;35.18;99851.34;4476982;31;34848;-84
2022/02/19 10:50:09;;;;;;;3.90;0.60;;;;;;;12.48;34.56;99830.63;4491534;31;34106;-84
2022/02/19 10:52:59;;;;;;;1.60;0.30;;;;;;;12.11;34.97;99850.16;4490419;31;34313;-85
2022/02/19 10:55:28;;;;;;;6.22;0.30;;;;;;;12.40;33.79;99846.06;4489953;31;31422;-84
2022/02/19 10:58:02;;;;;;;1.85;0.50;;;;;;;12.41;33.62;99849.56;4477778;31;34819;-85
2022/02/19 11:00:34;;;;;;;0.45;0.20;;;;;;;12.15;34.91;99840.25;4491053;31;33762;-85
2022/02/19 11:03:04;;;;;;;0.80;0.40;;;;;;;12.25;34.72;99846.84;4488444;31;34277;-84
2022/02/19 11:05:31;;;;;;;1.25;0.37;;;;;;;12.40;33.89;99853.16;4489963;31;33348;-85
2022/02/19 11:08:00;;;;;;;2.15;0.20;;;;;;;12.33;34.13;99844.66;4479596;31;32819;-84
2022/02/19 11:10:29;;;;;;;1.35;0.30;;;;;;;12.22;34.12;99853.12;4465985;31;33481;-85
2022/02/19 11:12:56;;;;;;;2.42;0.40;;;;;;;12.09;35.41;99861.75;4492128;31;32898;-85
2022/02/19 11:15:25;;;;;;;0.57;0.30;;;;;;;12.29;34.86;99853.66;4475623;31;33435;-85
2022/02/19 11:17:54;;;;;;;1.08;0.30;;;;;;;12.49;33.95;99861.50;4487787;31;34052;-84
2022/02/19 11:20:25;;;;;;;2.45;0.62;;;;;;;12.09;34.73;99856.47;4489219;31;34694;-85
2022/02/19 11:22:54;;;;;;;0.20;0.10;;;;;;;12.27;34.10;99871.44;4477265;31;32625;-84
2022/02/19 11:25:27;;;;;;;3.05;0.57;;;;;;;12.26;34.67;99869.72;4488426;31;34089;-84
2022/02/19 11:28:02;;;;;;;2.53;0.55;;;;;;;12.37;33.16;99869.19;4481875;31;32918;-84
2022/02/19 11:30:32;;;;;;;0.30;0.30;;;;;;;12.73;33.06;99874.44;4475137;31;31793;-84
2022/02/19 11:33:03;;;;;;;0.52;0.28;;;;;;;12.57;33.50;99880.47;4487912;31;33936;-84
2022/02/19 11:35:41;;;;;;;3.17;0.40;;;;;;;12.59;33.07;99867.19;4480052;31;33464;-84
2022/02/19 11:38:30;;;;;;;0.98;0.35;;;;;;;12.60;32.96;99874.19;4487593;31;33474;-85
2022/02/19 11:40:59;;;;;;;0.77;0.20;;;;;;;12.55;32.95;99869.13;4477782;31;33082;-84
2022/02/19 11:43:39;;;;;;;0.73;0.50;;;;;;;12.57;33.56;99877.84;4476083;31;33276;-84
2022/02/19 11:46:32;;;;;;;2.87;0.30;;;;;;;12.66;33.03;99865.06;4489146;31;32862;-85
2022/02/19 11:49:26;;;;;;;5.28;0.90;;;;;;;12.73;32.24;99863.81;4478125;31;33817;-85
2022/02/19 11:52:12;;;;;;;;;;;;;;;12.42;33.02;99861.88;4488612;31;34833;-84